Time;durP1;ratioP1;P1;durP2;ratioP2;P2;SDS_P1;SDS_P2;PMS_P1;PMS_P2;Temp;Humidity;BMP_temperature;BMP_pressure;BME280_temperature;BME280_humidity;BME280_pressure;Samples;Min_cycle;Max_cycle;Signal;HPM_P1;HPM_P2
2023/10/12 00:00:27;;;;;;;7.10;5.30;;;;;;;-145.53;100.00;64590.91;6151306;28;109001;-62
2023/10/12 00:03:31;;;;;;;6.10;5.00;;;;;;;-145.53;100.00;64590.91;6133248;28;109315;-62
2023/10/12 00:06:37;;;;;;;5.20;4.70;;;;;;;-145.53;100.00;64590.91;6123788;28;109262;-62
2023/10/12 00:09:47;;;;;;;5.75;4.80;;;;;;;-145.53;100.00;64590.91;6136402;28;109392;-62
2023/10/12 00:12:54;;;;;;;5.90;4.70;;;;;;;-145.53;100.00;64590.91;6128348;28;110097;-62
2023/10/12 00:15:57;;;;;;;5.30;4.67;;;;;;;-145.53;100.00;64590.91;6118449;28;109140;-63
2023/10/12 00:19:01;;;;;;;5.00;4.50;;;;;;;-145.53;100.00;64590.91;6129022;28;109069;-62
2023/10/12 00:22:09;;;;;;;4.70;4.30;;;;;;;-145.53;100.00;64590.91;6136093;28;109153;-62
2023/10/12 00:25:16;;;;;;;4.90;4.40;;;;;;;-145.53;100.00;64590.91;6132654;28;109267;-62
2023/10/12 00:28:20;;;;;;;4.80;4.30;;;;;;;-145.53;100.00;64590.91;6126406;28;109377;-61
2023/10/12 00:31:25;;;;;;;5.18;4.20;;;;;;;-145.53;100.00;64590.91;6136721;28;109127;-62
2023/10/12 00:34:34;;;;;;;4.50;4.10;;;;;;;-145.53;100.00;64590.91;6136922;28;109696;-63
2023/10/12 00:37:37;;;;;;;5.50;4.30;;;;;;;-145.53;100.00;64590.91;6117085;28;109244;-61
2023/10/12 00:40:50;;;;;;;5.57;3.90;;;;;;;-145.53;100.00;64590.91;6121842;28;109362;-62
2023/10/12 00:43:59;;;;;;;5.70;4.53;;;;;;;-145.53;100.00;64590.91;6126131;28;110783;-62
2023/10/12 00:47:12;;;;;;;4.70;4.10;;;;;;;-145.53;100.00;64590.91;6128072;28;109200;-62
2023/10/12 00:50:16;;;;;;;4.40;4.00;;;;;;;-145.53;100.00;64590.91;6130250;28;109637;-62
2023/10/12 00:53:23;;;;;;;4.43;4.03;;;;;;;-145.53;100.00;64590.91;6124580;28;109199;-62
2023/10/12 00:56:30;;;;;;;4.60;4.10;;;;;;;-145.53;100.00;64590.91;6137722;28;109315;-62
2023/10/12 00:59:34;;;;;;;5.20;3.90;;;;;;;-145.53;100.00;64590.91;6151499;28;109345;-62
2023/10/12 01:02:39;;;;;;;5.10;4.20;;;;;;;-145.53;100.00;64590.91;6120403;28;109917;-62
2023/10/12 01:05:49;;;;;;;4.65;3.70;;;;;;;-145.53;100.00;64590.91;6135243;28;109042;-61
2023/10/12 01:08:57;;;;;;;4.38;3.65;;;;;;;-145.53;100.00;64590.91;6135463;28;109832;-59
2023/10/12 01:12:06;;;;;;;4.55;3.72;;;;;;;-145.53;100.00;64590.91;6130484;28;109105;-59
2023/10/12 01:15:11;;;;;;;4.03;3.70;;;;;;;-145.53;100.00;64590.91;6124836;28;109357;-59
2023/10/12 01:18:16;;;;;;;5.63;3.70;;;;;;;-145.53;100.00;64590.91;6130347;28;109146;-61
2023/10/12 01:21:20;;;;;;;4.47;3.40;;;;;;;-145.53;100.00;64590.91;6135204;28;108893;-60
2023/10/12 01:24:30;;;;;;;4.25;3.20;;;;;;;-145.53;100.00;64590.91;6124616;28;109799;-59
2023/10/12 01:27:34;;;;;;;4.80;3.22;;;;;;;-145.53;100.00;64590.91;6119891;28;109118;-59
2023/10/12 01:30:39;;;;;;;3.70;3.30;;;;;;;-145.53;100.00;64590.91;6133197;28;109288;-59
2023/10/12 01:33:42;;;;;;;3.60;3.30;;;;;;;-145.53;100.00;64590.91;6127106;28;109042;-59
2023/10/12 01:36:45;;;;;;;4.00;3.05;;;;;;;-145.53;100.00;64590.91;6123597;28;109279;-60
2023/10/12 01:39:57;;;;;;;3.90;2.90;;;;;;;-145.53;100.00;64590.91;6133924;28;109120;-59
2023/10/12 01:43:01;;;;;;;4.32;3.17;;;;;;;-145.53;100.00;64590.91;6123628;28;109451;-60
2023/10/12 01:46:08;;;;;;;4.28;3.28;;;;;;;-145.53;100.00;64590.91;6133669;28;109018;-59
2023/10/12 01:49:14;;;;;;;3.90;3.20;;;;;;;-145.53;100.00;64590.91;6124358;28;109028;-59
2023/10/12 01:52:19;;;;;;;3.80;3.00;;;;;;;-145.53;100.00;64590.91;6131516;28;109084;-59
2023/10/12 01:55:29;;;;;;;4.13;3.30;;;;;;;-145.53;100.00;64590.91;6127651;28;109163;-60
2023/10/12 01:58:35;;;;;;;5.50;2.97;;;;;;;-145.53;100.00;64590.91;6125761;28;109408;-61
2023/10/12 02:01:42;;;;;;;4.60;3.25;;;;;;;-145.53;100.00;64590.91;6129115;28;109047;-60
2023/10/12 02:04:47;;;;;;;4.30;3.10;;;;;;;-145.53;100.00;64590.91;6133083;28;108997;-61
2023/10/12 02:07:52;;;;;;;4.10;3.10;;;;;;;-145.53;100.00;64590.91;6127879;28;109251;-60
2023/10/12 02:11:05;;;;;;;4.05;2.88;;;;;;;-145.53;100.00;64590.91;6121441;28;109093;-60
2023/10/12 02:14:11;;;;;;;3.20;2.90;;;;;;;-145.53;100.00;64590.91;6121286;28;109570;-60
2023/10/12 02:17:14;;;;;;;3.40;2.95;;;;;;;-145.53;100.00;64590.91;6127070;28;110297;-63
2023/10/12 02:20:18;;;;;;;3.50;3.20;;;;;;;-145.53;100.00;64590.91;6135403;28;109216;-63
2023/10/12 02:23:31;;;;;;;4.25;3.15;;;;;;;-145.53;100.00;64590.91;6123285;28;109080;-62
2023/10/12 02:26:37;;;;;;;3.30;3.00;;;;;;;-145.53;100.00;64590.91;6135023;28;109239;-62
2023/10/12 02:29:41;;;;;;;3.95;3.20;;;;;;;-145.53;100.00;64590.91;6133306;28;109819;-63
2023/10/12 02:32:48;;;;;;;3.95;2.90;;;;;;;-145.53;100.00;64590.91;6114116;28;109644;-62
2023/10/12 02:35:52;;;;;;;4.60;3.10;;;;;;;-145.53;100.00;64590.91;6131497;28;109124;-62
2023/10/12 02:38:58;;;;;;;3.60;3.10;;;;;;;-145.53;100.00;64590.91;6130758;28;109270;-63
2023/10/12 02:42:17;;;;;;;3.75;2.80;;;;;;;-145.53;100.00;64590.91;6135608;28;109231;-62
2023/10/12 02:45:21;;;;;;;3.30;3.00;;;;;;;-145.53;100.00;64590.91;6128015;28;109286;-62
2023/10/12 02:48:29;;;;;;;4.47;3.10;;;;;;;-145.53;100.00;64590.91;6138781;28;109296;-62
2023/10/12 02:51:36;;;;;;;3.90;3.40;;;;;;;-145.53;100.00;64590.91;6138620;28;109289;-63
2023/10/12 02:54:49;;;;;;;6.82;3.60;;;;;;;-145.53;100.00;64590.91;6138350;28;109337;-62
2023/10/12 02:57:56;;;;;;;4.20;3.10;;;;;;;-145.53;100.00;64590.91;6112075;28;109010;-62
2023/10/12 03:01:12;;;;;;;4.25;3.38;;;;;;;-145.53;100.00;64590.91;6134980;28;109504;-62
2023/10/12 03:04:17;;;;;;;3.45;3.15;;;;;;;-145.53;100.00;64590.91;6134819;28;109198;-62
2023/10/12 03:07:23;;;;;;;4.05;3.28;;;;;;;-145.53;100.00;64590.91;6123417;28;110413;-63
2023/10/12 03:10:26;;;;;;;5.55;3.60;;;;;;;-145.53;100.00;64590.91;6135319;28;109114;-62
2023/10/12 03:13:35;;;;;;;4.40;3.10;;;;;;;-145.53;100.00;64590.91;6132804;28;109054;-62
2023/10/12 03:16:41;;;;;;;4.60;3.00;;;;;;;-145.53;100.00;64590.91;6128842;28;109225;-62
2023/10/12 03:19:48;;;;;;;4.25;3.50;;;;;;;-145.53;100.00;64590.91;6126160;28;109767;-62
2023/10/12 03:22:52;;;;;;;26.23;24.40;;;;;;;-145.53;100.00;64590.91;6135755;28;109574;-62
2023/10/12 03:25:56;;;;;;;30.47;28.23;;;;;;;-145.53;100.00;64590.91;6136126;28;109084;-62
2023/10/12 03:29:09;;;;;;;21.50;20.00;;;;;;;-145.53;100.00;64590.91;6128324;28;109404;-63
2023/10/12 03:32:16;;;;;;;14.35;13.25;;;;;;;-145.53;100.00;64590.91;6130624;28;109570;-59
2023/10/12 03:35:33;;;;;;;14.20;13.10;;;;;;;-145.53;100.00;64590.91;6136847;28;110532;-59
2023/10/12 03:38:36;;;;;;;18.95;17.55;;;;;;;-145.53;100.00;64590.91;6137644;28;109050;-61
2023/10/12 03:41:46;;;;;;;17.33;16.03;;;;;;;-145.53;100.00;64590.91;6124392;28;109223;-60
2023/10/12 03:44:52;;;;;;;13.68;12.57;;;;;;;-145.53;100.00;64590.91;6133517;28;111317;-59
2023/10/12 03:48:12;;;;;;;15.25;14.15;;;;;;;-145.53;100.00;64590.91;6130128;28;109118;-59
2023/10/12 03:51:26;;;;;;;17.20;15.70;;;;;;;-145.53;100.00;64590.91;6137082;28;109289;-59
2023/10/12 03:54:31;;;;;;;17.58;15.98;;;;;;;-145.53;100.00;64590.91;6122283;28;109529;-59
2023/10/12 03:57:38;;;;;;;18.45;16.67;;;;;;;-145.53;100.00;64590.91;6154407;28;109777;-59
2023/10/12 04:00:53;;;;;;;15.32;13.93;;;;;;;-145.53;100.00;64590.91;6146835;28;109122;-58
2023/10/12 04:04:08;;;;;;;13.68;12.68;;;;;;;-145.53;100.00;64590.91;6130395;28;110033;-60
2023/10/12 04:07:19;;;;;;;13.70;12.40;;;;;;;-145.53;100.00;64590.91;6141124;28;109198;-58
2023/10/12 04:11:15;;;;;;;12.20;11.10;;;;;;;-145.53;100.00;64590.91;6136494;28;110526;-58
2023/10/12 04:13:56;;;;;;;11.45;10.38;;;;;;;-145.53;100.00;64590.91;6133706;28;113063;-61
2023/10/12 04:17:09;;;;;;;11.88;9.30;;;;;;;-145.53;100.00;64590.91;6133346;28;109317;-58
2023/10/12 04:20:22;;;;;;;9.60;7.45;;;;;;;-145.53;100.00;64590.91;6126780;28;109219;-58
2023/10/12 04:23:48;;;;;;;7.07;6.47;;;;;;;-145.53;100.00;64590.91;6112916;28;109168;-59
2023/10/12 04:27:11;;;;;;;6.30;5.10;;;;;;;-145.53;100.00;64590.91;6102748;28;109611;-57
2023/10/12 04:30:30;;;;;;;5.47;4.97;;;;;;;-145.53;100.00;64590.91;6131543;28;109226;-58
2023/10/12 04:33:43;;;;;;;5.50;4.20;;;;;;;-145.53;100.00;64590.91;6136623;28;109330;-61
2023/10/12 04:36:48;;;;;;;4.97;4.47;;;;;;;-145.53;100.00;64590.91;6136122;28;109532;-63
2023/10/12 04:39:56;;;;;;;5.53;4.60;;;;;;;-145.53;100.00;64590.91;6126914;28;109752;-62
2023/10/12 04:43:06;;;;;;;5.55;3.97;;;;;;;-145.53;100.00;64590.91;6126554;28;110435;-63
2023/10/12 04:46:27;;;;;;;4.95;3.90;;;;;;;-145.53;100.00;64590.91;6113355;28;110183;-63
2023/10/12 04:53:08;;;;;;;5.30;4.20;;;;;;;-145.53;100.00;64590.91;6122143;28;110576;-64
2023/10/12 04:56:11;;;;;;;5.10;4.40;;;;;;;-145.53;100.00;64590.91;6136923;28;109791;-63
2023/10/12 04:59:17;;;;;;;5.15;4.47;;;;;;;-145.53;100.00;64590.91;6145338;28;110095;-63
2023/10/12 05:02:28;;;;;;;5.10;4.60;;;;;;;-145.53;100.00;64590.91;6142298;28;109568;-62
2023/10/12 05:08:56;;;;;;;5.55;5.05;;;;;;;-145.53;100.00;64590.91;6128469;28;109061;-63
2023/10/12 05:11:59;;;;;;;5.78;4.85;;;;;;;-145.53;100.00;64590.91;6128324;28;108892;-62
2023/10/12 05:15:11;;;;;;;5.50;5.00;;;;;;;-145.53;100.00;64590.91;6136073;28;110069;-63
2023/10/12 05:18:17;;;;;;;5.60;5.10;;;;;;;-145.53;100.00;64590.91;6125512;28;109508;-62
2023/10/12 05:21:22;;;;;;;9.13;8.23;;;;;;;-145.53;100.00;64590.91;6112261;28;108987;-63
2023/10/12 05:24:25;;;;;;;6.50;6.00;;;;;;;-145.53;100.00;64590.91;6101058;28;109450;-63
2023/10/12 05:27:38;;;;;;;8.13;5.75;;;;;;;-145.53;100.00;64590.91;6115875;28;109800;-64
2023/10/12 05:30:47;;;;;;;7.25;5.90;;;;;;;-145.53;100.00;64590.91;6146233;28;109321;-63
2023/10/12 05:34:25;;;;;;;6.77;6.07;;;;;;;-145.53;100.00;64590.91;6112301;28;110176;-63
2023/10/12 05:37:37;;;;;;;6.70;6.10;;;;;;;-145.53;100.00;64590.91;6106443;28;109790;-64
2023/10/12 05:40:43;;;;;;;7.07;6.37;;;;;;;-145.53;100.00;64590.91;6111600;28;109243;-63
2023/10/12 05:43:46;;;;;;;7.72;5.70;;;;;;;-145.53;100.00;64590.91;6111831;28;109468;-63
2023/10/12 05:46:59;;;;;;;6.05;5.45;;;;;;;-145.53;100.00;64590.91;6101715;28;109803;-63
2023/10/12 05:50:05;;;;;;;6.78;5.28;;;;;;;-145.53;100.00;64590.91;6135814;28;108551;-63
2023/10/12 05:53:10;;;;;;;8.88;6.60;;;;;;;-145.53;100.00;64590.91;6127819;28;109429;-63
2023/10/12 05:56:17;;;;;;;7.93;6.82;;;;;;;-145.53;100.00;64590.91;6111898;28;109110;-63
2023/10/12 05:59:20;;;;;;;9.48;6.50;;;;;;;-145.53;100.00;64590.91;6127823;28;109310;-63
2023/10/12 06:02:23;;;;;;;6.83;5.30;;;;;;;-145.53;100.00;64590.91;6160439;28;110727;-62
2023/10/12 06:05:27;;;;;;;7.00;5.22;;;;;;;-145.53;100.00;64590.91;6159928;28;109038;-62
2023/10/12 06:08:33;;;;;;;6.00;5.35;;;;;;;-145.53;100.00;64590.91;6134380;28;108923;-62
2023/10/12 06:11:40;;;;;;;6.80;4.72;;;;;;;-145.53;100.00;64590.91;6105777;28;109155;-63
2023/10/12 06:14:52;;;;;;;7.33;5.40;;;;;;;-145.53;100.00;64590.91;6111185;28;109252;-62
2023/10/12 06:17:57;;;;;;;8.65;6.40;;;;;;;-145.53;100.00;64590.91;6114882;28;109152;-62
2023/10/12 06:21:06;;;;;;;7.97;5.88;;;;;;;-145.53;100.00;64590.91;6124940;28;109276;-62
2023/10/12 06:24:12;;;;;;;7.50;5.90;;;;;;;-145.53;100.00;64590.91;6121109;28;109343;-63
2023/10/12 06:27:23;;;;;;;6.50;5.90;;;;;;;-145.53;100.00;64590.91;6111433;28;109059;-61
2023/10/12 06:30:28;;;;;;;7.95;5.90;;;;;;;-145.53;100.00;64590.91;6129054;28;108774;-61
2023/10/12 06:33:31;;;;;;;7.65;5.82;;;;;;;-145.53;100.00;64590.91;6124513;28;109484;-62
2023/10/12 06:36:38;;;;;;;6.80;6.10;;;;;;;-145.53;100.00;64590.91;6135184;28;109222;-62
2023/10/12 06:46:43;;;;;;;8.07;7.10;;;;;;;-145.53;100.00;64590.91;6049144;28;110491;-62
2023/10/12 06:49:47;;;;;;;8.00;7.18;;;;;;;-145.53;100.00;64590.91;6129259;28;108905;-62
2023/10/12 06:52:57;;;;;;;8.68;7.78;;;;;;;-145.53;100.00;64590.91;6135134;28;110092;-61
2023/10/12 06:56:16;;;;;;;11.40;10.30;;;;;;;-145.53;100.00;64590.91;6124720;28;109976;-62
2023/10/12 06:59:28;;;;;;;11.77;10.10;;;;;;;-145.53;100.00;64590.91;6142190;28;109284;-59
2023/10/12 07:02:34;;;;;;;11.05;10.05;;;;;;;-145.53;100.00;64590.91;6159248;28;109238;-59
2023/10/12 07:05:38;;;;;;;11.80;10.70;;;;;;;-145.53;100.00;64590.91;6126398;28;109641;-59
2023/10/12 07:08:42;;;;;;;11.60;10.45;;;;;;;-145.53;100.00;64590.91;6125442;28;109136;-59
2023/10/12 07:11:47;;;;;;;11.40;10.40;;;;;;;-145.53;100.00;64590.91;6110418;28;109095;-59
2023/10/12 07:14:53;;;;;;;12.60;11.50;;;;;;;-145.53;100.00;64590.91;6109803;28;110219;-58
2023/10/12 07:17:57;;;;;;;13.60;12.40;;;;;;;-145.53;100.00;64590.91;6101703;28;109070;-60
2023/10/12 07:21:00;;;;;;;14.77;13.57;;;;;;;-145.53;100.00;64590.91;6134828;28;109897;-59
2023/10/12 07:24:07;;;;;;;15.47;14.07;;;;;;;-145.53;100.00;64590.91;6133976;28;109152;-59
2023/10/12 07:27:17;;;;;;;16.50;15.00;;;;;;;-145.53;100.00;64590.91;6134771;28;109602;-59
2023/10/12 07:30:30;;;;;;;18.48;16.77;;;;;;;-145.53;100.00;64590.91;6128257;28;109532;-59
2023/10/12 07:33:34;;;;;;;18.63;17.00;;;;;;;-145.53;100.00;64590.91;6132734;28;109002;-59
2023/10/12 07:36:52;;;;;;;18.90;17.10;;;;;;;-145.53;100.00;64590.91;6114480;28;109350;-59
2023/10/12 07:39:56;;;;;;;18.45;16.85;;;;;;;-145.53;100.00;64590.91;6120225;28;109028;-59
2023/10/12 07:43:05;;;;;;;18.33;16.70;;;;;;;-145.53;100.00;64590.91;6137211;28;109092;-59
2023/10/12 07:46:13;;;;;;;19.38;17.58;;;;;;;-145.53;100.00;64590.91;6137307;28;109173;-59
2023/10/12 07:49:27;;;;;;;19.15;17.35;;;;;;;-145.53;100.00;64590.91;6127062;28;109034;-60
2023/10/12 07:52:45;;;;;;;17.80;16.20;;;;;;;-145.53;100.00;64590.91;6103713;28;109127;-59
2023/10/12 07:55:53;;;;;;;18.60;16.90;;;;;;;-145.53;100.00;64590.91;6136772;28;109206;-59
2023/10/12 07:58:58;;;;;;;19.63;17.75;;;;;;;-145.53;100.00;64590.91;6136941;28;109296;-62
2023/10/12 08:02:08;;;;;;;19.00;17.30;;;;;;;-145.53;100.00;64590.91;6133118;28;109763;-64
2023/10/12 08:05:17;;;;;;;19.48;17.63;;;;;;;-145.53;100.00;64590.91;6131784;28;109002;-63
2023/10/12 08:08:34;;;;;;;16.83;15.32;;;;;;;-145.53;100.00;64590.91;6135514;28;108931;-61
2023/10/12 08:11:39;;;;;;;17.43;15.93;;;;;;;-145.53;100.00;64590.91;6114260;28;109035;-61
2023/10/12 08:14:44;;;;;;;16.97;15.47;;;;;;;-145.53;100.00;64590.91;6116628;28;109517;-61
2023/10/12 08:17:58;;;;;;;16.35;14.85;;;;;;;-145.53;100.00;64590.91;6136964;28;109282;-62
2023/10/12 08:21:17;;;;;;;16.03;14.63;;;;;;;-145.53;100.00;64590.91;6113794;28;109223;-62
2023/10/12 08:24:23;;;;;;;15.38;13.88;;;;;;;-145.53;100.00;64590.91;6112667;28;109364;-62
2023/10/12 08:27:39;;;;;;;14.00;12.90;;;;;;;-145.53;100.00;64590.91;6108020;28;110232;-61
2023/10/12 08:30:59;;;;;;;13.70;12.40;;;;;;;-145.53;100.00;64590.91;6147122;28;109197;-62
2023/10/12 08:34:13;;;;;;;13.67;12.37;;;;;;;-145.53;100.00;64590.91;6155257;28;109429;-61
2023/10/12 08:37:18;;;;;;;14.40;13.10;;;;;;;-145.53;100.00;64590.91;6127773;28;109172;-62
2023/10/12 08:40:26;;;;;;;13.60;12.30;;;;;;;-145.53;100.00;64590.91;6136666;28;109296;-62
2023/10/12 08:43:43;;;;;;;13.90;12.70;;;;;;;-145.53;100.00;64590.91;6137053;28;109639;-61
2023/10/12 08:46:56;;;;;;;13.07;11.87;;;;;;;-145.53;100.00;64590.91;6137374;28;109519;-62
2023/10/12 08:50:04;;;;;;;12.67;11.47;;;;;;;-145.53;100.00;64590.91;6126116;28;110043;-61
2023/10/12 08:53:09;;;;;;;12.27;11.18;;;;;;;-145.53;100.00;64590.91;6137046;28;109095;-62
2023/10/12 08:56:13;;;;;;;12.70;11.60;;;;;;;-145.53;100.00;64590.91;6136550;28;109497;-62
2023/10/12 08:59:19;;;;;;;12.55;11.45;;;;;;;-145.53;100.00;64590.91;6126106;28;111650;-62
2023/10/12 09:02:24;;;;;;;12.80;11.70;;;;;;;-145.53;100.00;64590.91;6136711;28;109532;-62
2023/10/12 09:05:30;;;;;;;12.07;11.00;;;;;;;-145.53;100.00;64590.91;6120602;28;109142;-62
2023/10/12 09:08:46;;;;;;;12.43;11.32;;;;;;;-145.53;100.00;64590.91;6113255;28;109015;-60
2023/10/12 09:11:48;;;;;;;12.40;11.30;;;;;;;-145.53;100.00;64590.91;6125617;28;109133;-60
2023/10/12 09:14:55;;;;;;;11.70;10.70;;;;;;;-145.53;100.00;64590.91;6125264;28;109190;-60
2023/10/12 09:17:59;;;;;;;12.60;11.50;;;;;;;-145.53;100.00;64590.91;6112363;28;109274;-59
2023/10/12 09:21:17;;;;;;;13.23;12.02;;;;;;;-145.53;100.00;64590.91;6111410;28;109310;-60
2023/10/12 09:24:28;;;;;;;12.20;11.15;;;;;;;-145.53;100.00;64590.91;6106434;28;109202;-59
2023/10/12 09:27:48;;;;;;;11.57;10.57;;;;;;;-145.53;100.00;64590.91;6112101;28;108974;-59
2023/10/12 09:30:51;;;;;;;12.65;11.55;;;;;;;-145.53;100.00;64590.91;6129145;28;109453;-60
2023/10/12 09:34:12;;;;;;;12.07;11.02;;;;;;;-145.53;100.00;64590.91;6126274;28;109233;-60
2023/10/12 09:37:17;;;;;;;11.90;10.80;;;;;;;-145.53;100.00;64590.91;6135988;28;109084;-59
2023/10/12 09:40:34;;;;;;;11.88;10.77;;;;;;;-145.53;100.00;64590.91;6135550;28;109337;-59
2023/10/12 09:43:40;;;;;;;11.70;10.60;;;;;;;-145.53;100.00;64590.91;6136120;28;109134;-59
2023/10/12 09:46:48;;;;;;;12.30;11.20;;;;;;;-145.53;100.00;64590.91;6125593;28;110318;-59
2023/10/12 09:49:59;;;;;;;12.20;11.20;;;;;;;-145.53;100.00;64590.91;6135492;28;109271;-59
2023/10/12 09:53:14;;;;;;;11.70;10.60;;;;;;;-145.53;100.00;64590.91;6134861;28;109084;-59
2023/10/12 09:56:24;;;;;;;11.50;10.40;;;;;;;-145.53;100.00;64590.91;6126302;28;109416;-59
2023/10/12 09:59:31;;;;;;;11.60;10.60;;;;;;;-145.53;100.00;64590.91;6134473;28;109269;-59
2023/10/12 10:02:42;;;;;;;10.60;9.70;;;;;;;-145.53;100.00;64590.91;6135787;28;108995;-59
2023/10/12 10:05:54;;;;;;;10.40;9.50;;;;;;;-145.53;100.00;64590.91;6120013;28;109236;-60
2023/10/12 10:12:23;;;;;;;9.85;8.95;;;;;;;-145.53;100.00;64590.91;6110791;28;109305;-59
2023/10/12 10:15:36;;;;;;;9.57;8.63;;;;;;;-145.53;100.00;64590.91;6111587;28;109739;-59
2023/10/12 10:18:49;;;;;;;9.30;8.50;;;;;;;-145.53;100.00;64590.91;6104200;28;109497;-62
2023/10/12 10:22:05;;;;;;;9.55;8.65;;;;;;;-145.53;100.00;64590.91;6110927;28;110440;-61
2023/10/12 10:25:17;;;;;;;10.00;9.10;;;;;;;-145.53;100.00;64590.91;6110344;28;109285;-62
2023/10/12 10:28:23;;;;;;;8.67;7.87;;;;;;;-145.53;100.00;64590.91;6110882;28;108904;-61
2023/10/12 10:31:28;;;;;;;10.23;9.23;;;;;;;-145.53;100.00;64590.91;6102235;28;109717;-62
2023/10/12 10:34:34;;;;;;;9.47;8.60;;;;;;;-145.53;100.00;64590.91;6114654;28;109478;-61
2023/10/12 10:37:47;;;;;;;9.40;8.50;;;;;;;-145.53;100.00;64590.91;6134904;28;109288;-61
2023/10/12 10:40:52;;;;;;;9.80;8.90;;;;;;;-145.53;100.00;64590.91;6129786;28;109423;-62
2023/10/12 10:43:55;;;;;;;9.43;8.63;;;;;;;-145.53;100.00;64590.91;6129530;28;110202;-62
2023/10/12 10:47:06;;;;;;;9.70;8.90;;;;;;;-145.53;100.00;64590.91;6135074;28;109141;-62
2023/10/12 10:50:15;;;;;;;9.55;8.65;;;;;;;-145.53;100.00;64590.91;6126452;28;110166;-61
2023/10/12 10:53:20;;;;;;;9.43;8.63;;;;;;;-145.53;100.00;64590.91;6099468;28;109191;-62
2023/10/12 10:56:34;;;;;;;9.03;7.90;;;;;;;-145.53;100.00;64590.91;6109777;28;110118;-62
2023/10/12 10:59:38;;;;;;;8.32;7.53;;;;;;;-145.53;100.00;64590.91;6115375;28;109089;-61
2023/10/12 11:02:41;;;;;;;8.25;7.45;;;;;;;-145.53;100.00;64590.91;6134612;28;108843;-61
2023/10/12 11:05:46;;;;;;;8.50;7.60;;;;;;;-145.53;100.00;64590.91;6127950;28;111118;-62
2023/10/12 11:09:05;;;;;;;7.53;6.82;;;;;;;-145.53;100.00;64590.91;6138406;28;109340;-61
2023/10/12 11:12:09;;;;;;;7.85;7.05;;;;;;;-145.53;100.00;64590.91;6138434;28;108806;-62
2023/10/12 11:15:19;;;;;;;8.10;7.40;;;;;;;-145.53;100.00;64590.91;6126210;28;109024;-62
2023/10/12 11:18:25;;;;;;;8.68;7.97;;;;;;;-145.53;100.00;64590.91;6110434;28;109291;-62
2023/10/12 11:21:28;;;;;;;8.43;7.63;;;;;;;-145.53;100.00;64590.91;6131299;28;109230;-62
2023/10/12 11:24:35;;;;;;;8.47;7.67;;;;;;;-145.53;100.00;64590.91;6137818;28;109652;-62
2023/10/12 11:27:39;;;;;;;9.20;8.30;;;;;;;-145.53;100.00;64590.91;6127066;28;109500;-61
2023/10/12 11:30:43;;;;;;;10.50;9.50;;;;;;;-145.53;100.00;64590.91;6140859;28;109082;-62
2023/10/12 11:33:49;;;;;;;9.48;8.65;;;;;;;-145.53;100.00;64590.91;6138601;28;109085;-62
2023/10/12 11:36:57;;;;;;;9.67;8.80;;;;;;;-145.53;100.00;64590.91;6138117;28;109140;-62
2023/10/12 11:40:06;;;;;;;9.90;8.90;;;;;;;-145.53;100.00;64590.91;6124017;28;109060;-61
2023/10/12 11:43:10;;;;;;;10.57;9.57;;;;;;;-145.53;100.00;64590.91;6114275;28;109326;-61
2023/10/12 11:46:14;;;;;;;10.23;9.32;;;;;;;-145.53;100.00;64590.91;6127980;28;109230;-61
2023/10/12 11:49:19;;;;;;;10.40;9.50;;;;;;;-145.53;100.00;64590.91;6133315;28;109223;-61
2023/10/12 11:52:29;;;;;;;10.45;9.55;;;;;;;-145.53;100.00;64590.91;6110641;28;109407;-62
2023/10/12 11:55:35;;;;;;;10.10;9.20;;;;;;;-145.53;100.00;64590.91;6114015;28;109256;-62
2023/10/12 11:58:38;;;;;;;9.82;8.95;;;;;;;-145.53;100.00;64590.91;6112628;28;109189;-62
2023/10/12 12:01:41;;;;;;;10.77;9.77;;;;;;;-145.53;100.00;64590.91;6111323;28;109211;-62
2023/10/12 12:04:44;;;;;;;9.37;8.57;;;;;;;-145.53;100.00;64590.91;6115353;28;109746;-62
2023/10/12 12:08:06;;;;;;;9.57;8.68;;;;;;;-145.53;100.00;64590.91;6138432;28;109249;-62
2023/10/12 12:11:13;;;;;;;8.50;7.70;;;;;;;-145.53;100.00;64590.91;6137721;28;109412;-62
2023/10/12 12:14:16;;;;;;;8.45;7.65;;;;;;;-145.53;100.00;64590.91;6126565;28;108703;-63
2023/10/12 12:17:19;;;;;;;8.23;7.40;;;;;;;-145.53;100.00;64590.91;6116871;28;109437;-67
2023/10/12 12:20:23;;;;;;;12.02;10.93;;;;;;;-145.53;100.00;64590.91;6116715;28;109305;-68
2023/10/12 12:23:27;;;;;;;12.10;11.00;;;;;;;-145.53;100.00;64590.91;6111578;28;110198;-68
2023/10/12 12:26:34;;;;;;;12.10;11.00;;;;;;;-145.53;100.00;64590.91;6111944;28;109921;-68
2023/10/12 12:29:38;;;;;;;11.20;10.10;;;;;;;-145.53;100.00;64590.91;6121786;28;109357;-69
2023/10/12 12:32:49;;;;;;;10.80;9.80;;;;;;;-145.53;100.00;64590.91;6139927;28;109216;-68
2023/10/12 12:35:59;;;;;;;10.00;9.00;;;;;;;-145.53;100.00;64590.91;6131024;28;109650;-69
2023/10/12 12:39:10;;;;;;;9.60;8.70;;;;;;;-145.53;100.00;64590.91;6138438;28;109329;-62
2023/10/12 12:42:16;;;;;;;8.80;8.10;;;;;;;-145.53;100.00;64590.91;6136907;28;109400;-62
2023/10/12 12:45:19;;;;;;;8.68;7.78;;;;;;;-145.53;100.00;64590.91;6137154;28;109225;-61
2023/10/12 12:48:23;;;;;;;8.95;8.02;;;;;;;-145.53;100.00;64590.91;6128243;28;110037;-61
2023/10/12 12:51:26;;;;;;;10.73;7.72;;;;;;;-145.53;100.00;64590.91;6136959;28;110213;-63
2023/10/12 12:54:31;;;;;;;8.00;7.30;;;;;;;-145.53;100.00;64590.91;6135395;28;109092;-63
2023/10/12 12:57:38;;;;;;;9.80;8.20;;;;;;;-145.53;100.00;64590.91;6129259;28;110440;-62
2023/10/12 13:00:41;;;;;;;10.77;8.90;;;;;;;-145.53;100.00;64590.91;6139127;28;109789;-62
2023/10/12 13:03:45;;;;;;;10.88;8.63;;;;;;;-145.53;100.00;64590.91;6138789;28;109250;-62
2023/10/12 13:06:51;;;;;;;8.70;7.80;;;;;;;-145.53;100.00;64590.91;6124327;28;109082;-61
2023/10/12 13:10:11;;;;;;;8.50;7.40;;;;;;;-145.53;100.00;64590.91;6104365;28;110188;-62
2023/10/12 13:13:16;;;;;;;7.90;7.10;;;;;;;-145.53;100.00;64590.91;6138080;28;109122;-63
2023/10/12 13:16:20;;;;;;;7.57;6.87;;;;;;;-145.53;100.00;64590.91;6137317;28;109648;-63
2023/10/12 13:19:24;;;;;;;10.80;7.05;;;;;;;-145.53;100.00;64590.91;6137751;28;109103;-63
2023/10/12 13:22:27;;;;;;;7.95;7.18;;;;;;;-145.53;100.00;64590.91;6128738;28;109110;-63
2023/10/12 13:25:30;;;;;;;19.73;17.93;;;;;;;-145.53;100.00;64590.91;6135064;28;109132;-63
2023/10/12 13:28:37;;;;;;;30.42;27.73;;;;;;;-145.53;100.00;64590.91;6113392;28;109107;-62
2023/10/12 13:31:41;;;;;;;40.28;36.70;;;;;;;-145.53;100.00;64590.91;6121873;28;110224;-61
2023/10/12 13:34:44;;;;;;;44.75;41.05;;;;;;;-145.53;100.00;64590.91;6109796;28;108909;-62
2023/10/12 13:37:47;;;;;;;47.85;43.65;;;;;;;-145.53;100.00;64590.91;6133420;28;109374;-62
2023/10/12 13:40:51;;;;;;;19.25;17.35;;;;;;;-145.53;100.00;64590.91;6137415;28;109409;-63
2023/10/12 13:43:55;;;;;;;12.07;8.97;;;;;;;-145.53;100.00;64590.91;6127900;28;109216;-63
2023/10/12 13:46:58;;;;;;;11.27;9.23;;;;;;;-145.53;100.00;64590.91;6123729;28;109109;-62
2023/10/12 13:50:05;;;;;;;19.35;17.55;;;;;;;-145.53;100.00;64590.91;6111669;28;109551;-61
2023/10/12 13:53:08;;;;;;;18.75;17.05;;;;;;;-145.53;100.00;64590.91;6134746;28;111149;-62
2023/10/12 13:56:12;;;;;;;15.80;14.50;;;;;;;-145.53;100.00;64590.91;6119152;28;110366;-62
2023/10/12 13:59:23;;;;;;;17.20;15.50;;;;;;;-145.53;100.00;64590.91;6111630;28;109378;-61
2023/10/12 14:02:27;;;;;;;16.65;15.23;;;;;;;-145.53;100.00;64590.91;6126873;28;109381;-61
2023/10/12 14:05:30;;;;;;;16.25;14.82;;;;;;;-145.53;100.00;64590.91;6130342;28;110132;-62
2023/10/12 14:08:35;;;;;;;16.03;14.73;;;;;;;-145.53;100.00;64590.91;6106255;28;109652;-61
2023/10/12 14:11:39;;;;;;;15.95;14.45;;;;;;;-145.53;100.00;64590.91;6120150;28;109102;-61